sensor_id;sensor_type;location;lat;lon;timestamp;temperature;humidity
59572;DHT22;59406;45.602;11.904;2022-08-25T00:01:41;22.40;73.30
59572;DHT22;59406;45.602;11.904;2022-08-25T00:04:09;22.40;73.80
59572;DHT22;59406;45.602;11.904;2022-08-25T00:06:37;22.40;73.80
59572;DHT22;59406;45.602;11.904;2022-08-25T00:09:04;22.30;73.90
59572;DHT22;59406;45.602;11.904;2022-08-25T00:11:32;22.40;73.80
59572;DHT22;59406;45.602;11.904;2022-08-25T00:14:02;22.40;73.90
59572;DHT22;59406;45.602;11.904;2022-08-25T00:16:28;22.40;73.70
59572;DHT22;59406;45.602;11.904;2022-08-25T00:18:58;22.40;73.90
59572;DHT22;59406;45.602;11.904;2022-08-25T00:21:26;22.30;73.50
59572;DHT22;59406;45.602;11.904;2022-08-25T00:23:52;22.30;73.40
59572;DHT22;59406;45.602;11.904;2022-08-25T00:26:19;22.30;73.50
59572;DHT22;59406;45.602;11.904;2022-08-25T00:28:46;22.30;73.50
59572;DHT22;59406;45.602;11.904;2022-08-25T00:31:15;22.30;73.60
59572;DHT22;59406;45.602;11.904;2022-08-25T00:33:45;22.20;73.50
59572;DHT22;59406;45.602;11.904;2022-08-25T00:36:12;22.20;73.40
59572;DHT22;59406;45.602;11.904;2022-08-25T00:38:40;22.20;73.00
59572;DHT22;59406;45.602;11.904;2022-08-25T00:41:07;22.20;73.20
59572;DHT22;59406;45.602;11.904;2022-08-25T00:43:52;22.10;73.30
59572;DHT22;59406;45.602;11.904;2022-08-25T00:46:21;22.00;73.90
59572;DHT22;59406;45.602;11.904;2022-08-25T00:48:53;22.00;73.60
59572;DHT22;59406;45.602;11.904;2022-08-25T00:51:27;22.00;73.80
59572;DHT22;59406;45.602;11.904;2022-08-25T00:53:54;22.00;74.70
59572;DHT22;59406;45.602;11.904;2022-08-25T00:56:21;21.90;74.00
59572;DHT22;59406;45.602;11.904;2022-08-25T00:58:47;21.90;74.10
59572;DHT22;59406;45.602;11.904;2022-08-25T01:01:13;21.80;74.00
59572;DHT22;59406;45.602;11.904;2022-08-25T01:03:39;21.70;77.00
59572;DHT22;59406;45.602;11.904;2022-08-25T01:06:06;21.40;77.20
59572;DHT22;59406;45.602;11.904;2022-08-25T01:08:35;21.50;76.40
59572;DHT22;59406;45.602;11.904;2022-08-25T01:11:05;21.50;76.00
59572;DHT22;59406;45.602;11.904;2022-08-25T01:13:36;21.60;75.90
59572;DHT22;59406;45.602;11.904;2022-08-25T01:16:03;21.60;75.90
59572;DHT22;59406;45.602;11.904;2022-08-25T01:18:48;21.60;75.60
59572;DHT22;59406;45.602;11.904;2022-08-25T01:21:16;21.60;75.80
59572;DHT22;59406;45.602;11.904;2022-08-25T01:23:44;21.60;75.40
59572;DHT22;59406;45.602;11.904;2022-08-25T01:26:15;21.60;75.00
59572;DHT22;59406;45.602;11.904;2022-08-25T01:28:43;21.70;75.10
59572;DHT22;59406;45.602;11.904;2022-08-25T01:31:30;21.60;74.80
59572;DHT22;59406;45.602;11.904;2022-08-25T01:33:57;21.60;74.80
59572;DHT22;59406;45.602;11.904;2022-08-25T01:36:25;21.60;75.20
59572;DHT22;59406;45.602;11.904;2022-08-25T01:38:52;21.60;75.10
59572;DHT22;59406;45.602;11.904;2022-08-25T01:44:00;21.50;75.60
59572;DHT22;59406;45.602;11.904;2022-08-25T01:46:26;21.50;75.30
59572;DHT22;59406;45.602;11.904;2022-08-25T01:48:52;21.50;75.60
59572;DHT22;59406;45.602;11.904;2022-08-25T01:51:22;21.50;75.40
59572;DHT22;59406;45.602;11.904;2022-08-25T01:53:49;21.50;75.90
59572;DHT22;59406;45.602;11.904;2022-08-25T01:56:16;21.50;76.20
59572;DHT22;59406;45.602;11.904;2022-08-25T01:58:46;21.50;75.90
59572;DHT22;59406;45.602;11.904;2022-08-25T02:01:21;21.60;75.70
59572;DHT22;59406;45.602;11.904;2022-08-25T02:03:50;21.60;75.90
59572;DHT22;59406;45.602;11.904;2022-08-25T02:06:34;21.60;75.70
59572;DHT22;59406;45.602;11.904;2022-08-25T02:09:06;21.70;76.10
59572;DHT22;59406;45.602;11.904;2022-08-25T02:11:36;21.60;75.50
59572;DHT22;59406;45.602;11.904;2022-08-25T02:14:02;21.60;75.40
59572;DHT22;59406;45.602;11.904;2022-08-25T02:16:31;21.50;75.60
59572;DHT22;59406;45.602;11.904;2022-08-25T02:18:57;21.60;75.90
59572;DHT22;59406;45.602;11.904;2022-08-25T02:21:24;21.40;75.80
59572;DHT22;59406;45.602;11.904;2022-08-25T02:23:50;21.40;75.80
59572;DHT22;59406;45.602;11.904;2022-08-25T02:26:17;21.40;75.80
59572;DHT22;59406;45.602;11.904;2022-08-25T02:28:45;21.40;75.90
59572;DHT22;59406;45.602;11.904;2022-08-25T02:31:12;21.40;75.70
59572;DHT22;59406;45.602;11.904;2022-08-25T02:33:38;21.40;75.80
59572;DHT22;59406;45.602;11.904;2022-08-25T02:36:05;21.30;76.40
59572;DHT22;59406;45.602;11.904;2022-08-25T02:38:33;21.30;76.20
59572;DHT22;59406;45.602;11.904;2022-08-25T02:41:00;21.40;76.30
59572;DHT22;59406;45.602;11.904;2022-08-25T02:43:27;21.40;76.20
59572;DHT22;59406;45.602;11.904;2022-08-25T02:45:53;21.40;76.30
59572;DHT22;59406;45.602;11.904;2022-08-25T02:48:24;21.30;76.10
59572;DHT22;59406;45.602;11.904;2022-08-25T02:50:51;21.40;76.10
59572;DHT22;59406;45.602;11.904;2022-08-25T02:53:21;21.30;76.30
59572;DHT22;59406;45.602;11.904;2022-08-25T02:55:47;21.40;75.90
59572;DHT22;59406;45.602;11.904;2022-08-25T02:58:14;21.40;76.10
59572;DHT22;59406;45.602;11.904;2022-08-25T03:00:40;21.30;76.60
59572;DHT22;59406;45.602;11.904;2022-08-25T03:03:06;21.30;76.20
59572;DHT22;59406;45.602;11.904;2022-08-25T03:05:32;21.30;76.40
59572;DHT22;59406;45.602;11.904;2022-08-25T03:07:59;21.30;76.40
59572;DHT22;59406;45.602;11.904;2022-08-25T03:10:25;21.30;76.20
59572;DHT22;59406;45.602;11.904;2022-08-25T03:12:51;21.30;76.40
59572;DHT22;59406;45.602;11.904;2022-08-25T03:15:17;21.20;75.90
59572;DHT22;59406;45.602;11.904;2022-08-25T03:17:45;21.30;76.00
59572;DHT22;59406;45.602;11.904;2022-08-25T03:20:12;21.20;76.20
59572;DHT22;59406;45.602;11.904;2022-08-25T03:22:38;21.20;76.40
59572;DHT22;59406;45.602;11.904;2022-08-25T03:25:04;21.20;76.50
59572;DHT22;59406;45.602;11.904;2022-08-25T03:27:51;21.20;76.40
59572;DHT22;59406;45.602;11.904;2022-08-25T03:30:18;21.20;76.40
59572;DHT22;59406;45.602;11.904;2022-08-25T03:32:44;21.30;76.40
59572;DHT22;59406;45.602;11.904;2022-08-25T03:35:10;21.30;76.50
59572;DHT22;59406;45.602;11.904;2022-08-25T03:37:36;21.10;76.30
59572;DHT22;59406;45.602;11.904;2022-08-25T03:40:04;21.20;76.20
59572;DHT22;59406;45.602;11.904;2022-08-25T03:42:32;21.10;76.20
59572;DHT22;59406;45.602;11.904;2022-08-25T03:44:58;21.30;76.40
59572;DHT22;59406;45.602;11.904;2022-08-25T03:47:24;21.20;76.30
59572;DHT22;59406;45.602;11.904;2022-08-25T03:49:54;21.30;76.20
59572;DHT22;59406;45.602;11.904;2022-08-25T03:52:21;21.30;76.20
59572;DHT22;59406;45.602;11.904;2022-08-25T03:54:47;21.30;75.90
59572;DHT22;59406;45.602;11.904;2022-08-25T03:57:14;21.20;76.10
59572;DHT22;59406;45.602;11.904;2022-08-25T03:59:40;21.20;75.90
59572;DHT22;59406;45.602;11.904;2022-08-25T04:02:07;21.20;76.10
59572;DHT22;59406;45.602;11.904;2022-08-25T04:04:33;21.20;76.20
59572;DHT22;59406;45.602;11.904;2022-08-25T04:07:00;21.20;76.10
59572;DHT22;59406;45.602;11.904;2022-08-25T04:09:27;21.20;76.00
59572;DHT22;59406;45.602;11.904;2022-08-25T04:11:53;21.10;76.40
59572;DHT22;59406;45.602;11.904;2022-08-25T04:14:19;21.00;77.10
59572;DHT22;59406;45.602;11.904;2022-08-25T04:16:46;20.90;77.00
59572;DHT22;59406;45.602;11.904;2022-08-25T04:19:12;20.90;77.30
59572;DHT22;59406;45.602;11.904;2022-08-25T04:21:39;20.90;78.70
59572;DHT22;59406;45.602;11.904;2022-08-25T04:24:07;20.90;77.20
59572;DHT22;59406;45.602;11.904;2022-08-25T04:26:43;20.80;78.40
59572;DHT22;59406;45.602;11.904;2022-08-25T04:29:11;21.00;77.40
59572;DHT22;59406;45.602;11.904;2022-08-25T04:31:42;20.80;78.20
59572;DHT22;59406;45.602;11.904;2022-08-25T04:34:08;20.90;77.20
59572;DHT22;59406;45.602;11.904;2022-08-25T04:36:35;20.90;78.40
59572;DHT22;59406;45.602;11.904;2022-08-25T04:39:01;21.00;77.10
59572;DHT22;59406;45.602;11.904;2022-08-25T04:41:27;21.00;76.90
59572;DHT22;59406;45.602;11.904;2022-08-25T04:43:57;20.90;77.00
59572;DHT22;59406;45.602;11.904;2022-08-25T04:46:25;21.00;77.10
59572;DHT22;59406;45.602;11.904;2022-08-25T04:48:54;21.10;77.20
59572;DHT22;59406;45.602;11.904;2022-08-25T04:51:31;21.30;76.80
59572;DHT22;59406;45.602;11.904;2022-08-25T04:53:59;21.40;77.10
59572;DHT22;59406;45.602;11.904;2022-08-25T04:56:26;21.40;76.70
59572;DHT22;59406;45.602;11.904;2022-08-25T04:58:54;21.50;76.60
59572;DHT22;59406;45.602;11.904;2022-08-25T05:01:22;21.60;76.60
59572;DHT22;59406;45.602;11.904;2022-08-25T05:04:00;21.60;76.40
59572;DHT22;59406;45.602;11.904;2022-08-25T05:06:27;21.80;76.30
59572;DHT22;59406;45.602;11.904;2022-08-25T05:08:54;21.90;75.90
59572;DHT22;59406;45.602;11.904;2022-08-25T05:11:21;22.00;75.90
59572;DHT22;59406;45.602;11.904;2022-08-25T05:13:48;22.00;75.60
59572;DHT22;59406;45.602;11.904;2022-08-25T05:16:16;22.10;75.90
59572;DHT22;59406;45.602;11.904;2022-08-25T05:18:43;22.10;76.00
59572;DHT22;59406;45.602;11.904;2022-08-25T05:21:12;22.20;76.00
59572;DHT22;59406;45.602;11.904;2022-08-25T05:23:40;22.40;76.20
59572;DHT22;59406;45.602;11.904;2022-08-25T05:26:12;22.40;76.10
59572;DHT22;59406;45.602;11.904;2022-08-25T05:28:39;22.50;76.10
59572;DHT22;59406;45.602;11.904;2022-08-25T05:31:08;22.40;75.90
59572;DHT22;59406;45.602;11.904;2022-08-25T05:33:35;22.50;75.90
59572;DHT22;59406;45.602;11.904;2022-08-25T05:36:02;22.70;75.60
59572;DHT22;59406;45.602;11.904;2022-08-25T05:38:28;22.70;75.40
59572;DHT22;59406;45.602;11.904;2022-08-25T05:41:02;23.00;75.40
59572;DHT22;59406;45.602;11.904;2022-08-25T05:43:29;23.00;75.30
59572;DHT22;59406;45.602;11.904;2022-08-25T05:45:56;23.30;74.90
59572;DHT22;59406;45.602;11.904;2022-08-25T05:48:24;23.40;74.70
59572;DHT22;59406;45.602;11.904;2022-08-25T05:50:58;23.60;74.50
59572;DHT22;59406;45.602;11.904;2022-08-25T05:53:26;23.80;75.10
59572;DHT22;59406;45.602;11.904;2022-08-25T05:55:54;24.00;74.60
59572;DHT22;59406;45.602;11.904;2022-08-25T05:58:21;24.10;74.40
59572;DHT22;59406;45.602;11.904;2022-08-25T06:00:48;24.30;74.20
59572;DHT22;59406;45.602;11.904;2022-08-25T06:03:14;24.30;73.70
59572;DHT22;59406;45.602;11.904;2022-08-25T06:05:40;24.50;73.60
59572;DHT22;59406;45.602;11.904;2022-08-25T06:08:06;24.60;73.60
59572;DHT22;59406;45.602;11.904;2022-08-25T06:10:33;24.80;73.10
59572;DHT22;59406;45.602;11.904;2022-08-25T06:12:59;25.10;72.90
59572;DHT22;59406;45.602;11.904;2022-08-25T06:15:26;25.60;72.60
59572;DHT22;59406;45.602;11.904;2022-08-25T06:17:52;25.90;71.80
59572;DHT22;59406;45.602;11.904;2022-08-25T06:20:24;26.00;71.60
59572;DHT22;59406;45.602;11.904;2022-08-25T06:22:50;26.40;72.10
59572;DHT22;59406;45.602;11.904;2022-08-25T06:25:19;26.70;71.80
59572;DHT22;59406;45.602;11.904;2022-08-25T06:27:46;26.70;71.50
59572;DHT22;59406;45.602;11.904;2022-08-25T06:30:15;26.90;71.50
59572;DHT22;59406;45.602;11.904;2022-08-25T06:32:43;27.30;70.90
59572;DHT22;59406;45.602;11.904;2022-08-25T06:35:13;27.60;70.60
59572;DHT22;59406;45.602;11.904;2022-08-25T06:37:41;27.70;70.60
59572;DHT22;59406;45.602;11.904;2022-08-25T06:40:08;28.10;70.50
59572;DHT22;59406;45.602;11.904;2022-08-25T06:42:34;28.40;69.80
59572;DHT22;59406;45.602;11.904;2022-08-25T06:45:00;28.70;69.70
59572;DHT22;59406;45.602;11.904;2022-08-25T06:47:27;29.10;68.30
59572;DHT22;59406;45.602;11.904;2022-08-25T06:49:53;28.90;68.10
59572;DHT22;59406;45.602;11.904;2022-08-25T06:52:19;28.90;68.20
59572;DHT22;59406;45.602;11.904;2022-08-25T06:54:44;29.00;67.70
59572;DHT22;59406;45.602;11.904;2022-08-25T06:57:11;29.10;66.00
59572;DHT22;59406;45.602;11.904;2022-08-25T06:59:37;29.40;65.50
59572;DHT22;59406;45.602;11.904;2022-08-25T07:02:04;29.90;64.10
59572;DHT22;59406;45.602;11.904;2022-08-25T07:04:31;29.80;63.90
59572;DHT22;59406;45.602;11.904;2022-08-25T07:06:58;30.00;62.60
59572;DHT22;59406;45.602;11.904;2022-08-25T07:09:23;29.60;62.90
59572;DHT22;59406;45.602;11.904;2022-08-25T07:11:50;30.00;62.30
59572;DHT22;59406;45.602;11.904;2022-08-25T07:14:17;30.70;61.30
59572;DHT22;59406;45.602;11.904;2022-08-25T07:16:47;31.20;59.50
59572;DHT22;59406;45.602;11.904;2022-08-25T07:19:13;31.50;57.80
59572;DHT22;59406;45.602;11.904;2022-08-25T07:21:40;31.90;56.30
59572;DHT22;59406;45.602;11.904;2022-08-25T07:24:09;31.80;56.80
59572;DHT22;59406;45.602;11.904;2022-08-25T07:26:37;31.40;57.30
59572;DHT22;59406;45.602;11.904;2022-08-25T07:29:08;31.80;56.90
59572;DHT22;59406;45.602;11.904;2022-08-25T07:31:34;32.30;54.00
59572;DHT22;59406;45.602;11.904;2022-08-25T07:34:00;32.70;53.10
59572;DHT22;59406;45.602;11.904;2022-08-25T07:36:44;33.10;52.10
59572;DHT22;59406;45.602;11.904;2022-08-25T07:39:11;33.60;50.50
59572;DHT22;59406;45.602;11.904;2022-08-25T07:41:39;34.10;48.30
59572;DHT22;59406;45.602;11.904;2022-08-25T07:44:07;34.30;48.60
59572;DHT22;59406;45.602;11.904;2022-08-25T07:46:33;33.90;48.20
59572;DHT22;59406;45.602;11.904;2022-08-25T07:48:59;33.70;49.40
59572;DHT22;59406;45.602;11.904;2022-08-25T07:51:25;33.90;48.60
59572;DHT22;59406;45.602;11.904;2022-08-25T07:53:51;33.90;47.90
59572;DHT22;59406;45.602;11.904;2022-08-25T07:56:17;34.20;45.80
59572;DHT22;59406;45.602;11.904;2022-08-25T07:58:44;34.00;47.20
59572;DHT22;59406;45.602;11.904;2022-08-25T08:01:21;34.50;46.40
59572;DHT22;59406;45.602;11.904;2022-08-25T08:03:48;34.70;44.70
59572;DHT22;59406;45.602;11.904;2022-08-25T08:06:18;35.10;44.20
59572;DHT22;59406;45.602;11.904;2022-08-25T08:08:45;35.50;43.60
59572;DHT22;59406;45.602;11.904;2022-08-25T08:11:19;36.30;41.90
59572;DHT22;59406;45.602;11.904;2022-08-25T08:13:46;36.30;40.70
59572;DHT22;59406;45.602;11.904;2022-08-25T08:16:15;36.30;41.30
59572;DHT22;59406;45.602;11.904;2022-08-25T08:18:43;36.40;40.60
59572;DHT22;59406;45.602;11.904;2022-08-25T08:21:17;36.80;38.40
59572;DHT22;59406;45.602;11.904;2022-08-25T08:23:44;35.80;40.80
59572;DHT22;59406;45.602;11.904;2022-08-25T08:26:10;36.70;41.00
59572;DHT22;59406;45.602;11.904;2022-08-25T08:28:36;37.50;39.30
59572;DHT22;59406;45.602;11.904;2022-08-25T08:31:02;37.70;39.00
59572;DHT22;59406;45.602;11.904;2022-08-25T08:33:28;38.00;37.80
59572;DHT22;59406;45.602;11.904;2022-08-25T08:36:09;37.90;37.60
59572;DHT22;59406;45.602;11.904;2022-08-25T08:38:38;37.70;36.70
59572;DHT22;59406;45.602;11.904;2022-08-25T08:47:04;37.80;36.80
59572;DHT22;59406;45.602;11.904;2022-08-25T08:52:15;39.00;36.30
59572;DHT22;59406;45.602;11.904;2022-08-25T08:54:44;40.00;34.80
59572;DHT22;59406;45.602;11.904;2022-08-25T08:57:14;40.50;33.60
59572;DHT22;59406;45.602;11.904;2022-08-25T08:59:49;40.40;34.00
59572;DHT22;59406;45.602;11.904;2022-08-25T09:02:28;40.40;32.80
59572;DHT22;59406;45.602;11.904;2022-08-25T09:05:06;39.80;33.00
59572;DHT22;59406;45.602;11.904;2022-08-25T09:10:15;39.70;32.60
59572;DHT22;59406;45.602;11.904;2022-08-25T09:16:11;39.30;32.10
59572;DHT22;59406;45.602;11.904;2022-08-25T09:21:56;40.00;30.60
59572;DHT22;59406;45.602;11.904;2022-08-25T09:29:46;39.60;30.80
59572;DHT22;59406;45.602;11.904;2022-08-25T09:32:16;39.40;31.10
59572;DHT22;59406;45.602;11.904;2022-08-25T09:34:42;39.80;31.10
59572;DHT22;59406;45.602;11.904;2022-08-25T09:37:09;41.00;30.20
59572;DHT22;59406;45.602;11.904;2022-08-25T09:39:35;40.50;29.30
59572;DHT22;59406;45.602;11.904;2022-08-25T09:42:01;40.60;29.60
59572;DHT22;59406;45.602;11.904;2022-08-25T09:49:44;41.80;27.50
59572;DHT22;59406;45.602;11.904;2022-08-25T09:52:22;41.80;27.80
59572;DHT22;59406;45.602;11.904;2022-08-25T09:54:49;42.40;27.00
59572;DHT22;59406;45.602;11.904;2022-08-25T09:59:55;0.20;0.20
59572;DHT22;59406;45.602;11.904;2022-08-25T10:02:28;0.20;0.20
59572;DHT22;59406;45.602;11.904;2022-08-25T10:04:55;0.20;0.20
59572;DHT22;59406;45.602;11.904;2022-08-25T10:07:33;0.20;0.20
59572;DHT22;59406;45.602;11.904;2022-08-25T10:10:04;0.20;0.20
59572;DHT22;59406;45.602;11.904;2022-08-25T10:12:39;0.20;0.20
59572;DHT22;59406;45.602;11.904;2022-08-25T10:15:25;0.20;0.20
59572;DHT22;59406;45.602;11.904;2022-08-25T10:17:51;0.20;0.20
59572;DHT22;59406;45.602;11.904;2022-08-25T10:20:26;0.20;0.20
59572;DHT22;59406;45.602;11.904;2022-08-25T10:23:09;0.20;0.20
59572;DHT22;59406;45.602;11.904;2022-08-25T10:25:48;0.20;0.20
59572;DHT22;59406;45.602;11.904;2022-08-25T10:28:56;0.20;0.20
59572;DHT22;59406;45.602;11.904;2022-08-25T10:31:43;0.20;0.20
59572;DHT22;59406;45.602;11.904;2022-08-25T10:42:38;0.20;0.20
59572;DHT22;59406;45.602;11.904;2022-08-25T10:45:22;0.20;0.20
59572;DHT22;59406;45.602;11.904;2022-08-25T10:50:44;0.20;0.20
59572;DHT22;59406;45.602;11.904;2022-08-25T10:59:24;0.20;0.20
59572;DHT22;59406;45.602;11.904;2022-08-25T11:07:43;0.20;0.20
59572;DHT22;59406;45.602;11.904;2022-08-25T11:10:15;0.20;0.20
59572;DHT22;59406;45.602;11.904;2022-08-25T11:12:45;0.20;0.20
59572;DHT22;59406;45.602;11.904;2022-08-25T11:15:22;0.20;0.20
59572;DHT22;59406;45.602;11.904;2022-08-25T11:20:21;0.20;0.20
59572;DHT22;59406;45.602;11.904;2022-08-25T11:25:45;0.20;0.20
59572;DHT22;59406;45.602;11.904;2022-08-25T11:28:35;0.20;0.20
59572;DHT22;59406;45.602;11.904;2022-08-25T11:31:03;0.20;0.20
59572;DHT22;59406;45.602;11.904;2022-08-25T11:33:30;0.20;0.20
59572;DHT22;59406;45.602;11.904;2022-08-25T11:36:04;0.20;0.20
59572;DHT22;59406;45.602;11.904;2022-08-25T11:51:53;0.20;0.20
59572;DHT22;59406;45.602;11.904;2022-08-25T11:54:23;0.20;0.20
59572;DHT22;59406;45.602;11.904;2022-08-25T12:02:38;0.20;0.20
59572;DHT22;59406;45.602;11.904;2022-08-25T12:11:05;0.20;0.20
59572;DHT22;59406;45.602;11.904;2022-08-25T12:13:42;0.20;0.20
59572;DHT22;59406;45.602;11.904;2022-08-25T12:27:29;0.20;0.20
59572;DHT22;59406;45.602;11.904;2022-08-25T12:38:14;0.20;0.20
59572;DHT22;59406;45.602;11.904;2022-08-25T12:43:24;0.20;0.20
59572;DHT22;59406;45.602;11.904;2022-08-25T12:48:41;0.20;0.20
59572;DHT22;59406;45.602;11.904;2022-08-25T12:51:16;0.20;0.20
59572;DHT22;59406;45.602;11.904;2022-08-25T12:56:20;0.20;0.20
59572;DHT22;59406;45.602;11.904;2022-08-25T12:58:52;0.20;0.20
59572;DHT22;59406;45.602;11.904;2022-08-25T13:07:19;0.20;0.20
59572;DHT22;59406;45.602;11.904;2022-08-25T13:15:43;0.20;0.20
59572;DHT22;59406;45.602;11.904;2022-08-25T13:18:18;0.20;0.20
59572;DHT22;59406;45.602;11.904;2022-08-25T13:20:47;0.20;0.20
59572;DHT22;59406;45.602;11.904;2022-08-25T13:23:21;0.20;0.20
59572;DHT22;59406;45.602;11.904;2022-08-25T13:25:50;0.20;0.20
59572;DHT22;59406;45.602;11.904;2022-08-25T13:28:33;0.20;0.20
59572;DHT22;59406;45.602;11.904;2022-08-25T13:31:14;0.20;0.20
59572;DHT22;59406;45.602;11.904;2022-08-25T13:33:51;0.20;0.20
59572;DHT22;59406;45.602;11.904;2022-08-25T13:36:18;0.20;0.20
59572;DHT22;59406;45.602;11.904;2022-08-25T13:39:18;0.20;0.20
59572;DHT22;59406;45.602;11.904;2022-08-25T13:41:47;0.20;0.20
59572;DHT22;59406;45.602;11.904;2022-08-25T13:44:15;0.20;0.20
59572;DHT22;59406;45.602;11.904;2022-08-25T13:46:42;0.20;0.20
59572;DHT22;59406;45.602;11.904;2022-08-25T13:49:11;0.20;0.20
59572;DHT22;59406;45.602;11.904;2022-08-25T13:51:52;0.20;0.20
59572;DHT22;59406;45.602;11.904;2022-08-25T13:54:44;0.20;0.20
59572;DHT22;59406;45.602;11.904;2022-08-25T13:57:23;0.20;0.20
59572;DHT22;59406;45.602;11.904;2022-08-25T13:59:54;0.20;0.20
59572;DHT22;59406;45.602;11.904;2022-08-25T14:02:48;0.20;0.20
59572;DHT22;59406;45.602;11.904;2022-08-25T14:05:34;0.20;0.20
59572;DHT22;59406;45.602;11.904;2022-08-25T14:08:01;0.20;0.20
59572;DHT22;59406;45.602;11.904;2022-08-25T14:10:40;0.20;0.20
59572;DHT22;59406;45.602;11.904;2022-08-25T14:13:29;0.20;0.20
59572;DHT22;59406;45.602;11.904;2022-08-25T14:16:19;0.20;0.20
59572;DHT22;59406;45.602;11.904;2022-08-25T14:18:50;0.20;0.20
59572;DHT22;59406;45.602;11.904;2022-08-25T14:21:18;0.20;0.20
59572;DHT22;59406;45.602;11.904;2022-08-25T14:23:45;0.20;0.20
59572;DHT22;59406;45.602;11.904;2022-08-25T14:26:11;0.20;0.20
59572;DHT22;59406;45.602;11.904;2022-08-25T14:28:37;0.20;0.20
59572;DHT22;59406;45.602;11.904;2022-08-25T14:31:17;0.20;0.20
59572;DHT22;59406;45.602;11.904;2022-08-25T14:36:20;0.20;0.20
59572;DHT22;59406;45.602;11.904;2022-08-25T14:38:46;0.20;0.20
59572;DHT22;59406;45.602;11.904;2022-08-25T14:41:13;0.20;0.20
59572;DHT22;59406;45.602;11.904;2022-08-25T14:43:38;0.20;0.20
59572;DHT22;59406;45.602;11.904;2022-08-25T14:46:11;0.20;0.20
59572;DHT22;59406;45.602;11.904;2022-08-25T14:48:41;0.20;0.20
59572;DHT22;59406;45.602;11.904;2022-08-25T14:51:10;0.20;0.20
59572;DHT22;59406;45.602;11.904;2022-08-25T14:53:37;0.20;0.20
59572;DHT22;59406;45.602;11.904;2022-08-25T14:56:03;0.20;0.20
59572;DHT22;59406;45.602;11.904;2022-08-25T14:58:29;0.20;0.20
59572;DHT22;59406;45.602;11.904;2022-08-25T15:00:55;40.60;21.40
59572;DHT22;59406;45.602;11.904;2022-08-25T15:03:31;0.20;0.20
59572;DHT22;59406;45.602;11.904;2022-08-25T15:06:02;0.20;0.20
59572;DHT22;59406;45.602;11.904;2022-08-25T15:08:29;0.20;0.20
59572;DHT22;59406;45.602;11.904;2022-08-25T15:11:18;0.20;0.20
59572;DHT22;59406;45.602;11.904;2022-08-25T15:13:44;0.20;0.20
59572;DHT22;59406;45.602;11.904;2022-08-25T15:16:20;0.20;0.20
59572;DHT22;59406;45.602;11.904;2022-08-25T15:18:47;0.20;0.20
59572;DHT22;59406;45.602;11.904;2022-08-25T15:21:14;0.20;0.20
59572;DHT22;59406;45.602;11.904;2022-08-25T15:23:40;0.20;0.20
59572;DHT22;59406;45.602;11.904;2022-08-25T15:26:10;0.20;0.20
59572;DHT22;59406;45.602;11.904;2022-08-25T15:28:41;0.20;0.20
59572;DHT22;59406;45.602;11.904;2022-08-25T15:31:07;0.20;0.20
59572;DHT22;59406;45.602;11.904;2022-08-25T15:33:33;0.20;0.20
59572;DHT22;59406;45.602;11.904;2022-08-25T15:36:00;0.20;0.20
59572;DHT22;59406;45.602;11.904;2022-08-25T15:38:26;0.20;0.20
59572;DHT22;59406;45.602;11.904;2022-08-25T15:40:51;0.20;0.20
59572;DHT22;59406;45.602;11.904;2022-08-25T15:43:18;0.20;0.20
59572;DHT22;59406;45.602;11.904;2022-08-25T15:45:43;0.20;0.20
59572;DHT22;59406;45.602;11.904;2022-08-25T15:48:10;0.20;0.20
59572;DHT22;59406;45.602;11.904;2022-08-25T15:50:36;0.20;0.20
59572;DHT22;59406;45.602;11.904;2022-08-25T15:53:02;0.20;0.20
59572;DHT22;59406;45.602;11.904;2022-08-25T15:55:28;0.20;0.20
59572;DHT22;59406;45.602;11.904;2022-08-25T16:01:26;0.20;0.20
59572;DHT22;59406;45.602;11.904;2022-08-25T16:03:52;0.20;0.20
59572;DHT22;59406;45.602;11.904;2022-08-25T16:06:19;0.20;0.20
59572;DHT22;59406;45.602;11.904;2022-08-25T16:08:45;0.20;0.20
59572;DHT22;59406;45.602;11.904;2022-08-25T16:11:21;0.20;0.20
59572;DHT22;59406;45.602;11.904;2022-08-25T16:13:48;0.20;0.20
59572;DHT22;59406;45.602;11.904;2022-08-25T16:16:15;0.20;0.20
59572;DHT22;59406;45.602;11.904;2022-08-25T16:18:42;0.20;0.20
59572;DHT22;59406;45.602;11.904;2022-08-25T16:21:14;0.20;0.20
59572;DHT22;59406;45.602;11.904;2022-08-25T16:23:41;0.20;0.20
59572;DHT22;59406;45.602;11.904;2022-08-25T16:26:09;0.20;0.20
59572;DHT22;59406;45.602;11.904;2022-08-25T16:28:37;0.20;0.20
59572;DHT22;59406;45.602;11.904;2022-08-25T16:31:03;0.20;0.20
59572;DHT22;59406;45.602;11.904;2022-08-25T16:33:30;0.20;0.20
59572;DHT22;59406;45.602;11.904;2022-08-25T16:36:19;0.20;0.20
59572;DHT22;59406;45.602;11.904;2022-08-25T16:38:46;0.20;0.20
59572;DHT22;59406;45.602;11.904;2022-08-25T16:41:15;0.20;0.20
59572;DHT22;59406;45.602;11.904;2022-08-25T16:43:43;0.20;0.20
59572;DHT22;59406;45.602;11.904;2022-08-25T16:46:11;0.20;0.20
59572;DHT22;59406;45.602;11.904;2022-08-25T16:48:38;0.20;0.20
59572;DHT22;59406;45.602;11.904;2022-08-25T16:51:13;0.20;0.20
59572;DHT22;59406;45.602;11.904;2022-08-25T16:53:39;0.20;0.20
59572;DHT22;59406;45.602;11.904;2022-08-25T16:56:24;0.20;0.20
59572;DHT22;59406;45.602;11.904;2022-08-25T16:58:58;0.20;0.20
59572;DHT22;59406;45.602;11.904;2022-08-25T17:01:26;0.20;0.20
59572;DHT22;59406;45.602;11.904;2022-08-25T17:03:53;0.20;0.20
59572;DHT22;59406;45.602;11.904;2022-08-25T17:06:21;0.20;0.20
59572;DHT22;59406;45.602;11.904;2022-08-25T17:08:48;0.20;0.20
59572;DHT22;59406;45.602;11.904;2022-08-25T17:11:21;0.20;0.20
59572;DHT22;59406;45.602;11.904;2022-08-25T17:13:50;0.20;0.20
59572;DHT22;59406;45.602;11.904;2022-08-25T17:16:18;0.20;0.20
59572;DHT22;59406;45.602;11.904;2022-08-25T17:18:46;0.20;0.20
59572;DHT22;59406;45.602;11.904;2022-08-25T17:21:15;0.20;0.20
59572;DHT22;59406;45.602;11.904;2022-08-25T17:23:42;0.20;0.20
59572;DHT22;59406;45.602;11.904;2022-08-25T17:26:11;0.20;0.20
59572;DHT22;59406;45.602;11.904;2022-08-25T17:28:38;0.20;0.20
59572;DHT22;59406;45.602;11.904;2022-08-25T17:31:06;0.20;0.20
59572;DHT22;59406;45.602;11.904;2022-08-25T17:33:33;0.20;0.20
59572;DHT22;59406;45.602;11.904;2022-08-25T17:35:59;0.20;0.20
59572;DHT22;59406;45.602;11.904;2022-08-25T17:38:27;0.20;0.20
59572;DHT22;59406;45.602;11.904;2022-08-25T17:40:56;0.20;0.20
59572;DHT22;59406;45.602;11.904;2022-08-25T17:43:24;0.20;0.20
59572;DHT22;59406;45.602;11.904;2022-08-25T17:45:52;0.20;0.20
59572;DHT22;59406;45.602;11.904;2022-08-25T17:48:20;0.20;0.20
59572;DHT22;59406;45.602;11.904;2022-08-25T17:50:46;0.20;0.20
59572;DHT22;59406;45.602;11.904;2022-08-25T17:53:12;0.20;0.20
59572;DHT22;59406;45.602;11.904;2022-08-25T17:55:40;0.20;0.20